sensor_id;sensor_type;location;lat;lon;timestamp;temperature;humidity
23683;DHT22;24897;53.514;10.482;2023-07-29T00:00:12;19.90;99.90
23683;DHT22;24897;53.514;10.482;2023-07-29T00:02:56;19.90;99.90
23683;DHT22;24897;53.514;10.482;2023-07-29T00:05:41;19.80;99.90
23683;DHT22;24897;53.514;10.482;2023-07-29T00:08:25;19.90;99.90
23683;DHT22;24897;53.514;10.482;2023-07-29T00:11:09;20.00;99.90
23683;DHT22;24897;53.514;10.482;2023-07-29T00:13:53;19.90;99.90
23683;DHT22;24897;53.514;10.482;2023-07-29T00:19:22;19.90;99.90
23683;DHT22;24897;53.514;10.482;2023-07-29T00:22:07;19.90;99.90
23683;DHT22;24897;53.514;10.482;2023-07-29T00:24:53;19.80;99.90
23683;DHT22;24897;53.514;10.482;2023-07-29T00:27:38;19.90;99.90
23683;DHT22;24897;53.514;10.482;2023-07-29T00:30:23;19.90;99.90
23683;DHT22;24897;53.514;10.482;2023-07-29T00:33:07;19.80;99.90
23683;DHT22;24897;53.514;10.482;2023-07-29T00:35:51;19.70;99.90
23683;DHT22;24897;53.514;10.482;2023-07-29T00:38:35;19.70;99.90
23683;DHT22;24897;53.514;10.482;2023-07-29T00:41:20;19.50;99.90
23683;DHT22;24897;53.514;10.482;2023-07-29T00:44:05;19.50;99.90
23683;DHT22;24897;53.514;10.482;2023-07-29T00:46:53;19.50;99.90
23683;DHT22;24897;53.514;10.482;2023-07-29T00:52:22;19.40;99.90
23683;DHT22;24897;53.514;10.482;2023-07-29T00:55:06;19.40;99.90
23683;DHT22;24897;53.514;10.482;2023-07-29T00:57:51;19.30;99.90
23683;DHT22;24897;53.514;10.482;2023-07-29T01:00:38;19.30;99.90
23683;DHT22;24897;53.514;10.482;2023-07-29T01:03:22;19.20;99.90
23683;DHT22;24897;53.514;10.482;2023-07-29T01:06:24;19.20;99.90
23683;DHT22;24897;53.514;10.482;2023-07-29T01:15:43;19.10;99.90
23683;DHT22;24897;53.514;10.482;2023-07-29T01:18:31;19.10;99.90
23683;DHT22;24897;53.514;10.482;2023-07-29T01:21:17;20.20;99.90
23683;DHT22;24897;53.514;10.482;2023-07-29T01:24:01;19.00;99.90
23683;DHT22;24897;53.514;10.482;2023-07-29T01:26:45;19.00;99.90
23683;DHT22;24897;53.514;10.482;2023-07-29T01:29:30;19.00;99.90
23683;DHT22;24897;53.514;10.482;2023-07-29T01:32:23;19.00;99.90
23683;DHT22;24897;53.514;10.482;2023-07-29T01:35:15;19.00;99.90
23683;DHT22;24897;53.514;10.482;2023-07-29T01:38:07;19.00;99.90
23683;DHT22;24897;53.514;10.482;2023-07-29T01:40:53;19.00;99.90
23683;DHT22;24897;53.514;10.482;2023-07-29T01:43:38;18.90;99.90
23683;DHT22;24897;53.514;10.482;2023-07-29T01:46:27;18.90;99.90
23683;DHT22;24897;53.514;10.482;2023-07-29T01:49:11;18.90;99.90
23683;DHT22;24897;53.514;10.482;2023-07-29T01:51:56;18.90;99.90
23683;DHT22;24897;53.514;10.482;2023-07-29T01:54:40;18.90;99.90
23683;DHT22;24897;53.514;10.482;2023-07-29T01:57:24;18.90;99.90
23683;DHT22;24897;53.514;10.482;2023-07-29T02:00:09;18.90;99.90
23683;DHT22;24897;53.514;10.482;2023-07-29T02:02:53;18.90;99.90
23683;DHT22;24897;53.514;10.482;2023-07-29T02:05:37;18.80;99.90
23683;DHT22;24897;53.514;10.482;2023-07-29T02:11:06;18.80;99.90
23683;DHT22;24897;53.514;10.482;2023-07-29T02:13:50;18.90;99.90
23683;DHT22;24897;53.514;10.482;2023-07-29T02:16:34;18.90;99.90
23683;DHT22;24897;53.514;10.482;2023-07-29T02:19:18;18.90;99.90
23683;DHT22;24897;53.514;10.482;2023-07-29T02:22:02;18.60;99.90
23683;DHT22;24897;53.514;10.482;2023-07-29T02:24:47;18.90;99.90
23683;DHT22;24897;53.514;10.482;2023-07-29T02:27:31;19.50;99.90
23683;DHT22;24897;53.514;10.482;2023-07-29T02:30:16;19.00;99.90
23683;DHT22;24897;53.514;10.482;2023-07-29T02:33:00;19.10;99.90
23683;DHT22;24897;53.514;10.482;2023-07-29T02:35:45;19.50;99.90
23683;DHT22;24897;53.514;10.482;2023-07-29T02:38:29;19.00;99.90
23683;DHT22;24897;53.514;10.482;2023-07-29T02:41:16;19.00;99.90
23683;DHT22;24897;53.514;10.482;2023-07-29T02:44:01;19.00;99.90
23683;DHT22;24897;53.514;10.482;2023-07-29T02:46:45;19.10;99.90
23683;DHT22;24897;53.514;10.482;2023-07-29T02:49:29;19.00;99.90
23683;DHT22;24897;53.514;10.482;2023-07-29T02:52:13;19.10;99.90
23683;DHT22;24897;53.514;10.482;2023-07-29T02:54:57;19.10;99.90
23683;DHT22;24897;53.514;10.482;2023-07-29T02:57:41;19.20;99.90
23683;DHT22;24897;53.514;10.482;2023-07-29T03:00:25;19.20;99.90
23683;DHT22;24897;53.514;10.482;2023-07-29T03:03:09;19.20;99.90
23683;DHT22;24897;53.514;10.482;2023-07-29T03:06:04;19.20;99.90
23683;DHT22;24897;53.514;10.482;2023-07-29T03:08:49;19.20;99.90
23683;DHT22;24897;53.514;10.482;2023-07-29T03:11:33;19.20;99.90
23683;DHT22;24897;53.514;10.482;2023-07-29T03:14:17;19.20;99.90
23683;DHT22;24897;53.514;10.482;2023-07-29T03:17:04;19.20;99.90
23683;DHT22;24897;53.514;10.482;2023-07-29T03:19:49;19.20;99.90
23683;DHT22;24897;53.514;10.482;2023-07-29T03:22:33;19.10;99.90
23683;DHT22;24897;53.514;10.482;2023-07-29T03:25:18;19.10;99.90
23683;DHT22;24897;53.514;10.482;2023-07-29T03:28:02;19.10;99.90
23683;DHT22;24897;53.514;10.482;2023-07-29T03:30:46;19.30;99.90
23683;DHT22;24897;53.514;10.482;2023-07-29T03:33:30;19.20;99.90
23683;DHT22;24897;53.514;10.482;2023-07-29T03:36:14;19.20;99.90
23683;DHT22;24897;53.514;10.482;2023-07-29T03:38:59;19.20;99.90
23683;DHT22;24897;53.514;10.482;2023-07-29T03:41:44;19.30;99.90
23683;DHT22;24897;53.514;10.482;2023-07-29T03:44:28;19.30;99.90
23683;DHT22;24897;53.514;10.482;2023-07-29T03:47:12;19.30;99.90
23683;DHT22;24897;53.514;10.482;2023-07-29T03:49:56;19.20;99.90
23683;DHT22;24897;53.514;10.482;2023-07-29T03:52:40;19.20;99.90
23683;DHT22;24897;53.514;10.482;2023-07-29T03:58:09;19.20;99.90
23683;DHT22;24897;53.514;10.482;2023-07-29T04:00:53;19.20;99.90
23683;DHT22;24897;53.514;10.482;2023-07-29T04:03:37;19.20;99.90
23683;DHT22;24897;53.514;10.482;2023-07-29T04:06:21;19.20;99.90
23683;DHT22;24897;53.514;10.482;2023-07-29T04:09:06;19.20;99.90
23683;DHT22;24897;53.514;10.482;2023-07-29T04:11:51;19.20;99.90
23683;DHT22;24897;53.514;10.482;2023-07-29T04:14:35;19.20;99.90
23683;DHT22;24897;53.514;10.482;2023-07-29T04:17:19;19.20;99.90
23683;DHT22;24897;53.514;10.482;2023-07-29T04:20:04;19.20;99.90
23683;DHT22;24897;53.514;10.482;2023-07-29T04:22:48;18.90;99.90
23683;DHT22;24897;53.514;10.482;2023-07-29T04:25:32;19.20;99.90
23683;DHT22;24897;53.514;10.482;2023-07-29T04:28:17;19.20;99.90
23683;DHT22;24897;53.514;10.482;2023-07-29T04:31:01;19.30;99.90
23683;DHT22;24897;53.514;10.482;2023-07-29T04:33:45;19.30;99.90
23683;DHT22;24897;53.514;10.482;2023-07-29T04:36:29;19.40;99.90
23683;DHT22;24897;53.514;10.482;2023-07-29T04:39:14;19.70;99.90
23683;DHT22;24897;53.514;10.482;2023-07-29T04:41:59;19.50;99.90
23683;DHT22;24897;53.514;10.482;2023-07-29T04:44:45;19.50;99.90
23683;DHT22;24897;53.514;10.482;2023-07-29T04:47:29;19.50;99.90
23683;DHT22;24897;53.514;10.482;2023-07-29T04:50:13;19.50;99.90
23683;DHT22;24897;53.514;10.482;2023-07-29T04:52:57;19.50;99.90
23683;DHT22;24897;53.514;10.482;2023-07-29T04:55:44;19.50;99.90
23683;DHT22;24897;53.514;10.482;2023-07-29T04:58:28;19.50;99.90
23683;DHT22;24897;53.514;10.482;2023-07-29T05:01:13;19.40;99.90
23683;DHT22;24897;53.514;10.482;2023-07-29T05:03:57;19.40;99.90
23683;DHT22;24897;53.514;10.482;2023-07-29T05:06:41;19.40;99.90
23683;DHT22;24897;53.514;10.482;2023-07-29T05:09:25;19.50;99.90
23683;DHT22;24897;53.514;10.482;2023-07-29T05:12:09;19.50;99.90
23683;DHT22;24897;53.514;10.482;2023-07-29T05:14:53;19.50;99.90
23683;DHT22;24897;53.514;10.482;2023-07-29T05:17:37;19.70;99.90
23683;DHT22;24897;53.514;10.482;2023-07-29T05:20:22;20.00;99.90
23683;DHT22;24897;53.514;10.482;2023-07-29T05:23:06;20.00;99.90
23683;DHT22;24897;53.514;10.482;2023-07-29T05:25:50;20.10;99.90
23683;DHT22;24897;53.514;10.482;2023-07-29T05:28:34;19.90;99.90
23683;DHT22;24897;53.514;10.482;2023-07-29T05:31:18;19.90;99.90
23683;DHT22;24897;53.514;10.482;2023-07-29T05:34:02;19.90;99.90
23683;DHT22;24897;53.514;10.482;2023-07-29T05:36:46;19.90;99.90
23683;DHT22;24897;53.514;10.482;2023-07-29T05:39:30;19.90;99.90
23683;DHT22;24897;53.514;10.482;2023-07-29T05:42:16;19.90;99.90
23683;DHT22;24897;53.514;10.482;2023-07-29T05:45:00;19.90;99.90
23683;DHT22;24897;53.514;10.482;2023-07-29T05:47:44;19.90;99.90
23683;DHT22;24897;53.514;10.482;2023-07-29T05:50:28;20.00;99.90
23683;DHT22;24897;53.514;10.482;2023-07-29T05:53:12;19.90;99.90
23683;DHT22;24897;53.514;10.482;2023-07-29T05:55:56;19.90;99.90
23683;DHT22;24897;53.514;10.482;2023-07-29T05:58:40;20.10;99.90
23683;DHT22;24897;53.514;10.482;2023-07-29T06:01:24;20.10;99.90
23683;DHT22;24897;53.514;10.482;2023-07-29T06:04:08;20.30;99.90
23683;DHT22;24897;53.514;10.482;2023-07-29T06:06:52;20.80;99.90
23683;DHT22;24897;53.514;10.482;2023-07-29T06:09:36;21.60;99.90
23683;DHT22;24897;53.514;10.482;2023-07-29T06:12:20;21.90;99.90
23683;DHT22;24897;53.514;10.482;2023-07-29T06:15:05;21.90;99.90
23683;DHT22;24897;53.514;10.482;2023-07-29T06:17:50;21.80;99.90
23683;DHT22;24897;53.514;10.482;2023-07-29T06:20:34;21.70;99.90
23683;DHT22;24897;53.514;10.482;2023-07-29T06:23:18;21.70;99.90
23683;DHT22;24897;53.514;10.482;2023-07-29T06:26:02;21.90;99.90
23683;DHT22;24897;53.514;10.482;2023-07-29T06:28:46;22.20;99.90
23683;DHT22;24897;53.514;10.482;2023-07-29T06:31:30;22.70;99.90
23683;DHT22;24897;53.514;10.482;2023-07-29T06:34:16;23.30;99.90
23683;DHT22;24897;53.514;10.482;2023-07-29T06:37:00;24.10;99.90
23683;DHT22;24897;53.514;10.482;2023-07-29T06:39:45;24.20;99.90
23683;DHT22;24897;53.514;10.482;2023-07-29T06:42:29;24.20;99.90
23683;DHT22;24897;53.514;10.482;2023-07-29T06:45:14;23.50;99.90
23683;DHT22;24897;53.514;10.482;2023-07-29T06:47:59;24.00;99.90
23683;DHT22;24897;53.514;10.482;2023-07-29T06:50:43;24.80;99.90
23683;DHT22;24897;53.514;10.482;2023-07-29T06:53:28;23.80;99.90
23683;DHT22;24897;53.514;10.482;2023-07-29T06:56:12;24.10;99.90
23683;DHT22;24897;53.514;10.482;2023-07-29T06:58:56;23.90;99.90
23683;DHT22;24897;53.514;10.482;2023-07-29T07:01:40;23.30;99.90
23683;DHT22;24897;53.514;10.482;2023-07-29T07:04:24;23.10;99.90
23683;DHT22;24897;53.514;10.482;2023-07-29T07:07:08;22.80;99.90
23683;DHT22;24897;53.514;10.482;2023-07-29T07:09:52;22.50;99.90
23683;DHT22;24897;53.514;10.482;2023-07-29T07:12:36;22.90;99.90
23683;DHT22;24897;53.514;10.482;2023-07-29T07:15:20;23.00;99.90
23683;DHT22;24897;53.514;10.482;2023-07-29T07:18:05;23.30;99.90
23683;DHT22;24897;53.514;10.482;2023-07-29T07:20:49;23.00;99.90
23683;DHT22;24897;53.514;10.482;2023-07-29T07:23:34;23.00;99.90
23683;DHT22;24897;53.514;10.482;2023-07-29T07:26:18;22.90;99.90
23683;DHT22;24897;53.514;10.482;2023-07-29T07:29:02;22.90;99.90
23683;DHT22;24897;53.514;10.482;2023-07-29T07:31:53;22.80;99.90
23683;DHT22;24897;53.514;10.482;2023-07-29T07:34:38;22.80;99.90
23683;DHT22;24897;53.514;10.482;2023-07-29T07:37:22;22.80;99.90
23683;DHT22;24897;53.514;10.482;2023-07-29T07:40:06;22.70;99.90
23683;DHT22;24897;53.514;10.482;2023-07-29T07:42:50;22.50;99.90
23683;DHT22;24897;53.514;10.482;2023-07-29T07:45:35;22.40;99.90
23683;DHT22;24897;53.514;10.482;2023-07-29T07:48:19;22.40;99.90
23683;DHT22;24897;53.514;10.482;2023-07-29T07:51:11;22.50;99.90
23683;DHT22;24897;53.514;10.482;2023-07-29T07:53:56;22.50;99.90
23683;DHT22;24897;53.514;10.482;2023-07-29T07:56:40;22.50;99.90
23683;DHT22;24897;53.514;10.482;2023-07-29T07:59:24;22.40;99.90
23683;DHT22;24897;53.514;10.482;2023-07-29T08:02:08;22.40;99.90
23683;DHT22;24897;53.514;10.482;2023-07-29T08:04:53;22.30;99.90
23683;DHT22;24897;53.514;10.482;2023-07-29T08:07:37;22.30;99.90
23683;DHT22;24897;53.514;10.482;2023-07-29T08:10:21;22.40;99.90
23683;DHT22;24897;53.514;10.482;2023-07-29T08:13:05;22.40;99.90
23683;DHT22;24897;53.514;10.482;2023-07-29T08:15:50;22.20;99.90
23683;DHT22;24897;53.514;10.482;2023-07-29T08:18:34;22.10;99.90
23683;DHT22;24897;53.514;10.482;2023-07-29T08:21:19;22.10;99.90
23683;DHT22;24897;53.514;10.482;2023-07-29T08:24:03;22.20;99.90
23683;DHT22;24897;53.514;10.482;2023-07-29T08:26:47;22.40;99.90
23683;DHT22;24897;53.514;10.482;2023-07-29T08:29:32;22.50;99.90
23683;DHT22;24897;53.514;10.482;2023-07-29T08:32:16;23.10;99.90
23683;DHT22;24897;53.514;10.482;2023-07-29T08:35:00;23.10;99.90
23683;DHT22;24897;53.514;10.482;2023-07-29T08:37:44;24.10;99.90
23683;DHT22;24897;53.514;10.482;2023-07-29T08:40:29;24.30;99.90
23683;DHT22;24897;53.514;10.482;2023-07-29T08:43:17;24.30;99.90
23683;DHT22;24897;53.514;10.482;2023-07-29T08:46:02;24.40;99.90
23683;DHT22;24897;53.514;10.482;2023-07-29T08:48:47;24.50;99.90
23683;DHT22;24897;53.514;10.482;2023-07-29T08:51:31;24.20;99.90
23683;DHT22;24897;53.514;10.482;2023-07-29T08:54:16;23.50;99.90
23683;DHT22;24897;53.514;10.482;2023-07-29T08:57:00;23.10;99.90
23683;DHT22;24897;53.514;10.482;2023-07-29T08:59:45;22.70;99.90
23683;DHT22;24897;53.514;10.482;2023-07-29T09:02:30;23.00;99.90
23683;DHT22;24897;53.514;10.482;2023-07-29T09:05:14;23.10;99.90
23683;DHT22;24897;53.514;10.482;2023-07-29T09:07:58;23.90;99.90
23683;DHT22;24897;53.514;10.482;2023-07-29T09:10:44;23.50;99.90
23683;DHT22;24897;53.514;10.482;2023-07-29T09:13:28;23.50;99.90
23683;DHT22;24897;53.514;10.482;2023-07-29T09:16:13;23.40;99.90
23683;DHT22;24897;53.514;10.482;2023-07-29T09:19:01;23.00;99.90
23683;DHT22;24897;53.514;10.482;2023-07-29T09:21:46;22.80;99.90
23683;DHT22;24897;53.514;10.482;2023-07-29T09:24:30;22.70;99.90
23683;DHT22;24897;53.514;10.482;2023-07-29T09:27:26;22.40;99.90
23683;DHT22;24897;53.514;10.482;2023-07-29T09:30:17;22.40;99.90
23683;DHT22;24897;53.514;10.482;2023-07-29T09:33:02;22.70;99.90
23683;DHT22;24897;53.514;10.482;2023-07-29T09:35:46;22.70;99.90
23683;DHT22;24897;53.514;10.482;2023-07-29T09:38:31;22.80;99.90
23683;DHT22;24897;53.514;10.482;2023-07-29T09:41:15;23.10;99.90
23683;DHT22;24897;53.514;10.482;2023-07-29T09:44:02;23.30;99.90
23683;DHT22;24897;53.514;10.482;2023-07-29T09:46:46;23.60;99.90
23683;DHT22;24897;53.514;10.482;2023-07-29T09:49:35;23.60;99.90
23683;DHT22;24897;53.514;10.482;2023-07-29T09:52:22;23.90;99.90
23683;DHT22;24897;53.514;10.482;2023-07-29T09:55:07;23.80;99.90
23683;DHT22;24897;53.514;10.482;2023-07-29T09:57:59;23.60;99.90
23683;DHT22;24897;53.514;10.482;2023-07-29T10:00:46;23.40;99.90
23683;DHT22;24897;53.514;10.482;2023-07-29T10:03:31;23.70;99.90
23683;DHT22;24897;53.514;10.482;2023-07-29T10:06:16;23.70;99.90
23683;DHT22;24897;53.514;10.482;2023-07-29T10:09:00;23.70;99.90
23683;DHT22;24897;53.514;10.482;2023-07-29T10:11:45;23.40;99.90
23683;DHT22;24897;53.514;10.482;2023-07-29T10:14:31;23.30;99.90
23683;DHT22;24897;53.514;10.482;2023-07-29T10:17:16;23.50;99.90
23683;DHT22;24897;53.514;10.482;2023-07-29T10:20:01;23.60;99.90
23683;DHT22;24897;53.514;10.482;2023-07-29T10:22:47;23.80;99.90
23683;DHT22;24897;53.514;10.482;2023-07-29T10:25:38;23.10;99.90
23683;DHT22;24897;53.514;10.482;2023-07-29T10:28:26;23.90;99.90
23683;DHT22;24897;53.514;10.482;2023-07-29T10:31:10;24.10;99.90
23683;DHT22;24897;53.514;10.482;2023-07-29T10:33:56;24.20;99.90
23683;DHT22;24897;53.514;10.482;2023-07-29T10:36:41;24.20;99.90
23683;DHT22;24897;53.514;10.482;2023-07-29T10:39:26;24.80;99.90
23683;DHT22;24897;53.514;10.482;2023-07-29T10:42:10;24.70;99.90
23683;DHT22;24897;53.514;10.482;2023-07-29T10:44:54;24.90;99.90
23683;DHT22;24897;53.514;10.482;2023-07-29T10:47:38;24.50;99.90
23683;DHT22;24897;53.514;10.482;2023-07-29T10:50:22;24.70;99.90
23683;DHT22;24897;53.514;10.482;2023-07-29T10:53:06;24.50;99.90
23683;DHT22;24897;53.514;10.482;2023-07-29T10:55:51;24.30;99.90
23683;DHT22;24897;53.514;10.482;2023-07-29T10:58:36;24.10;99.90
23683;DHT22;24897;53.514;10.482;2023-07-29T11:01:32;24.40;99.90
23683;DHT22;24897;53.514;10.482;2023-07-29T11:09:59;23.80;99.90
23683;DHT22;24897;53.514;10.482;2023-07-29T11:12:48;24.80;99.90
23683;DHT22;24897;53.514;10.482;2023-07-29T11:15:35;25.50;99.90
23683;DHT22;24897;53.514;10.482;2023-07-29T11:18:20;25.50;99.90
23683;DHT22;24897;53.514;10.482;2023-07-29T11:21:05;25.40;99.90
23683;DHT22;24897;53.514;10.482;2023-07-29T11:23:49;25.30;99.90
23683;DHT22;24897;53.514;10.482;2023-07-29T11:26:37;25.20;99.90
23683;DHT22;24897;53.514;10.482;2023-07-29T11:29:21;25.00;99.90
23683;DHT22;24897;53.514;10.482;2023-07-29T11:32:06;24.80;99.90
23683;DHT22;24897;53.514;10.482;2023-07-29T11:34:50;24.50;99.90
23683;DHT22;24897;53.514;10.482;2023-07-29T11:37:34;24.80;99.90
23683;DHT22;24897;53.514;10.482;2023-07-29T11:40:20;25.00;99.90
23683;DHT22;24897;53.514;10.482;2023-07-29T11:43:05;25.00;99.90
23683;DHT22;24897;53.514;10.482;2023-07-29T11:45:49;24.90;99.90
23683;DHT22;24897;53.514;10.482;2023-07-29T11:48:33;24.70;99.90
23683;DHT22;24897;53.514;10.482;2023-07-29T11:51:17;24.50;99.90
23683;DHT22;24897;53.514;10.482;2023-07-29T11:54:02;24.60;99.90
23683;DHT22;24897;53.514;10.482;2023-07-29T11:56:48;24.70;99.90
23683;DHT22;24897;53.514;10.482;2023-07-29T11:59:36;24.60;99.90
23683;DHT22;24897;53.514;10.482;2023-07-29T12:02:21;24.50;99.90
23683;DHT22;24897;53.514;10.482;2023-07-29T12:05:08;24.40;99.90
23683;DHT22;24897;53.514;10.482;2023-07-29T12:07:53;24.20;99.90
23683;DHT22;24897;53.514;10.482;2023-07-29T12:10:37;24.10;99.90
23683;DHT22;24897;53.514;10.482;2023-07-29T12:13:25;24.60;99.90
23683;DHT22;24897;53.514;10.482;2023-07-29T12:16:09;24.50;99.90
23683;DHT22;24897;53.514;10.482;2023-07-29T12:18:53;24.60;99.90
23683;DHT22;24897;53.514;10.482;2023-07-29T12:21:37;25.10;99.90
23683;DHT22;24897;53.514;10.482;2023-07-29T12:24:22;25.70;99.90
23683;DHT22;24897;53.514;10.482;2023-07-29T12:27:13;25.90;99.90
23683;DHT22;24897;53.514;10.482;2023-07-29T12:30:01;26.30;99.90
23683;DHT22;24897;53.514;10.482;2023-07-29T12:32:48;26.50;99.90
23683;DHT22;24897;53.514;10.482;2023-07-29T12:35:36;26.50;99.90
23683;DHT22;24897;53.514;10.482;2023-07-29T12:38:21;26.10;99.90
23683;DHT22;24897;53.514;10.482;2023-07-29T12:41:06;25.50;99.90
23683;DHT22;24897;53.514;10.482;2023-07-29T12:43:50;25.00;99.90
23683;DHT22;24897;53.514;10.482;2023-07-29T12:46:34;24.70;99.90
23683;DHT22;24897;53.514;10.482;2023-07-29T12:49:19;24.70;99.90
23683;DHT22;24897;53.514;10.482;2023-07-29T12:52:04;24.40;99.90
23683;DHT22;24897;53.514;10.482;2023-07-29T12:54:49;24.10;99.90
23683;DHT22;24897;53.514;10.482;2023-07-29T12:57:33;23.90;99.90
23683;DHT22;24897;53.514;10.482;2023-07-29T13:00:17;24.10;99.90
23683;DHT22;24897;53.514;10.482;2023-07-29T13:03:02;24.70;99.90
23683;DHT22;24897;53.514;10.482;2023-07-29T13:05:49;24.90;99.90
23683;DHT22;24897;53.514;10.482;2023-07-29T13:08:33;25.30;99.90
23683;DHT22;24897;53.514;10.482;2023-07-29T13:11:17;25.40;99.90
23683;DHT22;24897;53.514;10.482;2023-07-29T13:14:02;25.70;99.90
23683;DHT22;24897;53.514;10.482;2023-07-29T13:16:46;25.80;99.90
23683;DHT22;24897;53.514;10.482;2023-07-29T13:19:30;25.40;99.90
23683;DHT22;24897;53.514;10.482;2023-07-29T13:22:14;24.90;99.90
23683;DHT22;24897;53.514;10.482;2023-07-29T13:24:58;24.60;99.90
23683;DHT22;24897;53.514;10.482;2023-07-29T13:27:42;24.90;99.90
23683;DHT22;24897;53.514;10.482;2023-07-29T13:30:26;25.00;99.90
23683;DHT22;24897;53.514;10.482;2023-07-29T13:33:10;25.10;99.90
23683;DHT22;24897;53.514;10.482;2023-07-29T13:35:54;25.30;99.90
23683;DHT22;24897;53.514;10.482;2023-07-29T13:38:38;25.50;99.90
23683;DHT22;24897;53.514;10.482;2023-07-29T13:41:23;25.50;99.90
23683;DHT22;24897;53.514;10.482;2023-07-29T13:44:07;25.20;99.90
23683;DHT22;24897;53.514;10.482;2023-07-29T13:46:51;25.30;99.90
23683;DHT22;24897;53.514;10.482;2023-07-29T13:49:35;25.50;99.90
23683;DHT22;24897;53.514;10.482;2023-07-29T13:52:19;25.70;99.90
23683;DHT22;24897;53.514;10.482;2023-07-29T13:55:04;25.10;99.90
23683;DHT22;24897;53.514;10.482;2023-07-29T13:57:49;25.20;99.90
23683;DHT22;24897;53.514;10.482;2023-07-29T14:00:33;25.20;99.90
23683;DHT22;24897;53.514;10.482;2023-07-29T14:03:17;25.10;99.90
23683;DHT22;24897;53.514;10.482;2023-07-29T14:06:01;25.30;99.90
23683;DHT22;24897;53.514;10.482;2023-07-29T14:08:45;25.10;99.90
23683;DHT22;24897;53.514;10.482;2023-07-29T14:11:29;25.10;99.90
23683;DHT22;24897;53.514;10.482;2023-07-29T14:14:13;25.10;99.90
23683;DHT22;24897;53.514;10.482;2023-07-29T14:16:57;25.20;99.90
23683;DHT22;24897;53.514;10.482;2023-07-29T14:19:41;25.30;99.90
23683;DHT22;24897;53.514;10.482;2023-07-29T14:22:25;25.50;99.90
23683;DHT22;24897;53.514;10.482;2023-07-29T14:25:09;25.60;99.90
23683;DHT22;24897;53.514;10.482;2023-07-29T14:27:54;25.30;99.90
23683;DHT22;24897;53.514;10.482;2023-07-29T14:30:38;25.10;99.90
23683;DHT22;24897;53.514;10.482;2023-07-29T14:33:24;24.80;99.90
23683;DHT22;24897;53.514;10.482;2023-07-29T14:36:08;24.90;99.90
23683;DHT22;24897;53.514;10.482;2023-07-29T14:38:52;25.00;99.90
23683;DHT22;24897;53.514;10.482;2023-07-29T14:41:36;25.50;99.90
23683;DHT22;24897;53.514;10.482;2023-07-29T14:44:20;25.70;99.90
23683;DHT22;24897;53.514;10.482;2023-07-29T14:47:04;25.80;99.90
23683;DHT22;24897;53.514;10.482;2023-07-29T14:49:49;25.90;99.90
23683;DHT22;24897;53.514;10.482;2023-07-29T14:52:33;25.80;99.90
23683;DHT22;24897;53.514;10.482;2023-07-29T14:55:17;25.80;99.90
23683;DHT22;24897;53.514;10.482;2023-07-29T14:58:01;25.80;99.90
23683;DHT22;24897;53.514;10.482;2023-07-29T15:00:46;25.70;99.90
23683;DHT22;24897;53.514;10.482;2023-07-29T15:03:30;25.90;99.90
23683;DHT22;24897;53.514;10.482;2023-07-29T15:06:14;26.00;99.90
23683;DHT22;24897;53.514;10.482;2023-07-29T15:08:58;25.90;99.90
23683;DHT22;24897;53.514;10.482;2023-07-29T15:11:42;25.90;99.90
23683;DHT22;24897;53.514;10.482;2023-07-29T15:14:26;25.80;99.90
23683;DHT22;24897;53.514;10.482;2023-07-29T15:17:10;25.90;99.90
23683;DHT22;24897;53.514;10.482;2023-07-29T15:19:55;25.90;99.90
23683;DHT22;24897;53.514;10.482;2023-07-29T15:22:39;25.80;99.90
23683;DHT22;24897;53.514;10.482;2023-07-29T15:25:22;25.80;99.90
23683;DHT22;24897;53.514;10.482;2023-07-29T15:28:07;26.00;99.90
23683;DHT22;24897;53.514;10.482;2023-07-29T15:30:52;26.10;99.90
23683;DHT22;24897;53.514;10.482;2023-07-29T15:33:37;26.20;99.90
23683;DHT22;24897;53.514;10.482;2023-07-29T15:36:21;26.20;99.90
23683;DHT22;24897;53.514;10.482;2023-07-29T15:39:05;26.20;99.90
23683;DHT22;24897;53.514;10.482;2023-07-29T15:41:50;26.30;99.90
23683;DHT22;24897;53.514;10.482;2023-07-29T15:44:34;26.10;99.90
23683;DHT22;24897;53.514;10.482;2023-07-29T15:47:18;26.00;99.90
23683;DHT22;24897;53.514;10.482;2023-07-29T15:50:02;26.00;99.90
23683;DHT22;24897;53.514;10.482;2023-07-29T15:52:46;25.80;99.90
23683;DHT22;24897;53.514;10.482;2023-07-29T15:55:30;25.70;99.90
23683;DHT22;24897;53.514;10.482;2023-07-29T15:58:14;25.70;99.90
23683;DHT22;24897;53.514;10.482;2023-07-29T16:00:59;26.00;99.90
23683;DHT22;24897;53.514;10.482;2023-07-29T16:03:43;25.90;99.90
23683;DHT22;24897;53.514;10.482;2023-07-29T16:06:27;25.80;99.90
23683;DHT22;24897;53.514;10.482;2023-07-29T16:09:11;25.60;99.90
23683;DHT22;24897;53.514;10.482;2023-07-29T16:11:55;25.80;99.90
23683;DHT22;24897;53.514;10.482;2023-07-29T16:14:39;26.00;99.90
23683;DHT22;24897;53.514;10.482;2023-07-29T16:17:23;26.10;99.90
23683;DHT22;24897;53.514;10.482;2023-07-29T16:20:08;26.00;99.90
23683;DHT22;24897;53.514;10.482;2023-07-29T16:22:52;25.80;99.90
23683;DHT22;24897;53.514;10.482;2023-07-29T16:25:36;25.70;99.90
23683;DHT22;24897;53.514;10.482;2023-07-29T16:28:20;25.90;99.90
23683;DHT22;24897;53.514;10.482;2023-07-29T16:31:04;25.50;99.90
23683;DHT22;24897;53.514;10.482;2023-07-29T16:33:49;25.00;99.90
23683;DHT22;24897;53.514;10.482;2023-07-29T16:36:34;24.60;99.90
23683;DHT22;24897;53.514;10.482;2023-07-29T16:39:18;24.30;99.90
23683;DHT22;24897;53.514;10.482;2023-07-29T16:42:02;24.10;99.90
23683;DHT22;24897;53.514;10.482;2023-07-29T16:44:46;23.90;99.90
23683;DHT22;24897;53.514;10.482;2023-07-29T16:47:30;23.90;99.90
23683;DHT22;24897;53.514;10.482;2023-07-29T16:50:14;23.70;99.90
23683;DHT22;24897;53.514;10.482;2023-07-29T16:52:58;23.70;99.90
23683;DHT22;24897;53.514;10.482;2023-07-29T16:55:43;23.50;99.90
23683;DHT22;24897;53.514;10.482;2023-07-29T16:58:27;23.40;99.90
23683;DHT22;24897;53.514;10.482;2023-07-29T17:01:11;23.00;99.90
23683;DHT22;24897;53.514;10.482;2023-07-29T17:03:55;22.60;99.90
23683;DHT22;24897;53.514;10.482;2023-07-29T17:06:39;22.50;99.90
23683;DHT22;24897;53.514;10.482;2023-07-29T17:09:23;22.40;99.90
23683;DHT22;24897;53.514;10.482;2023-07-29T17:12:08;22.20;99.90
23683;DHT22;24897;53.514;10.482;2023-07-29T17:14:52;22.00;99.90
23683;DHT22;24897;53.514;10.482;2023-07-29T17:17:36;21.60;99.90
23683;DHT22;24897;53.514;10.482;2023-07-29T17:20:21;21.40;99.90
23683;DHT22;24897;53.514;10.482;2023-07-29T17:23:05;21.10;99.90
23683;DHT22;24897;53.514;10.482;2023-07-29T17:25:50;20.70;99.90